Time;durP1;ratioP1;P1;durP2;ratioP2;P2;SDS_P1;SDS_P2;PMS_P1;PMS_P2;Temp;Humidity;BMP_temperature;BMP_pressure;BME280_temperature;BME280_humidity;BME280_pressure;Samples;Min_cycle;Max_cycle;Signal;HPM_P1;HPM_P2
2023/05/03 00:01:44;;;;;;;13.27;6.32;;;18.10;69.80;;;;;;7385435;19;20056;-74
2023/05/03 00:04:14;;;;;;;11.40;6.40;;;18.10;70.10;;;;;;7385719;19;20002;-75
2023/05/03 00:06:45;;;;;;;14.77;6.13;;;18.10;70.00;;;;;;7385603;19;20398;-75
2023/05/03 00:09:14;;;;;;;14.25;6.43;;;18.00;69.90;;;;;;7384019;19;20010;-75
2023/05/03 00:11:46;;;;;;;12.70;6.07;;;18.00;69.90;;;;;;7406615;19;20243;-75
2023/05/03 00:14:14;;;;;;;18.35;6.72;;;17.90;69.90;;;;;;7384604;19;20070;-75
2023/05/03 00:16:43;;;;;;;8.57;5.93;;;17.90;69.40;;;;;;7384992;19;20070;-75
2023/05/03 00:19:12;;;;;;;12.23;5.32;;;17.90;69.60;;;;;;7385519;19;20026;-75
2023/05/03 00:21:41;;;;;;;15.52;6.35;;;17.90;69.70;;;;;;7385634;19;20010;-75
2023/05/03 00:24:10;;;;;;;14.95;6.50;;;17.90;69.70;;;;;;7385674;19;21173;-75
2023/05/03 00:26:38;;;;;;;11.23;6.45;;;17.80;69.40;;;;;;7406989;19;20006;-75
2023/05/03 00:29:10;;;;;;;10.30;6.15;;;17.80;69.30;;;;;;7382346;19;20003;-76
2023/05/03 00:31:38;;;;;;;13.68;6.20;;;17.80;69.40;;;;;;7384412;19;20024;-75
2023/05/03 00:34:07;;;;;;;12.88;6.32;;;17.80;69.30;;;;;;7390502;19;20046;-75
2023/05/03 00:36:36;;;;;;;14.25;6.43;;;17.80;69.50;;;;;;7393126;19;20011;-75
2023/05/03 00:39:04;;;;;;;12.38;6.95;;;17.80;69.60;;;;;;7385934;19;20006;-75
2023/05/03 00:41:33;;;;;;;10.45;6.78;;;17.70;69.60;;;;;;7403880;19;20014;-75
2023/05/03 00:44:02;;;;;;;12.27;5.75;;;17.70;69.60;;;;;;7383222;19;20027;-74
2023/05/03 00:46:33;;;;;;;13.90;6.28;;;17.70;69.60;;;;;;7385185;19;20011;-74
2023/05/03 00:49:02;;;;;;;12.07;5.95;;;17.70;69.80;;;;;;7384342;19;20016;-76
2023/05/03 00:51:31;;;;;;;15.52;6.47;;;17.70;69.40;;;;;;7384238;19;20007;-75
2023/05/03 00:54:00;;;;;;;13.25;6.28;;;17.70;69.40;;;;;;7381889;19;20006;-74
2023/05/03 00:56:31;;;;;;;11.07;6.30;;;17.70;69.00;;;;;;7405155;19;20078;-74
2023/05/03 00:59:00;;;;;;;15.27;6.38;;;17.70;69.00;;;;;;7382894;19;20006;-74
2023/05/03 01:01:31;;;;;;;13.88;6.47;;;17.70;69.10;;;;;;7382642;19;20019;-74
2023/05/03 01:04:03;;;;;;;11.57;6.35;;;17.60;69.00;;;;;;7383182;19;20007;-74
2023/05/03 01:06:40;;;;;;;14.35;6.63;;;17.60;69.10;;;;;;7381219;19;20058;-74
2023/05/03 01:09:17;;;;;;;10.05;6.32;;;17.60;69.20;;;;;;7382350;19;20027;-75
2023/05/03 01:11:55;;;;;;;14.80;5.93;;;17.60;69.20;;;;;;7405489;19;20030;-75
2023/05/03 01:14:30;;;;;;;16.05;6.40;;;17.60;69.00;;;;;;7383523;19;20003;-74
2023/05/03 01:17:04;;;;;;;11.27;5.57;;;17.50;69.10;;;;;;7382477;19;20407;-74
2023/05/03 01:19:39;;;;;;;14.60;5.47;;;17.60;69.00;;;;;;7382095;19;20389;-74
2023/05/03 01:22:18;;;;;;;15.35;5.80;;;17.50;68.70;;;;;;7382050;19;20016;-74
2023/05/03 01:24:52;;;;;;;15.38;6.07;;;17.50;68.70;;;;;;7382420;19;20248;-74
2023/05/03 01:27:23;;;;;;;10.63;5.97;;;17.50;68.70;;;;;;7383696;19;20003;-74
2023/05/03 01:29:52;;;;;;;12.65;5.55;;;17.50;68.80;;;;;;7381003;19;20003;-76
2023/05/03 01:32:28;;;;;;;11.65;5.50;;;17.50;68.70;;;;;;7404717;19;20019;-74
2023/05/03 01:35:06;;;;;;;11.88;5.97;;;17.40;68.70;;;;;;7382576;19;20010;-74
2023/05/03 01:37:35;;;;;;;12.80;5.68;;;17.40;68.60;;;;;;7382038;19;20003;-75
2023/05/03 01:40:06;;;;;;;13.25;5.78;;;17.40;68.50;;;;;;7382778;19;20091;-74
2023/05/03 01:42:39;;;;;;;11.68;6.10;;;17.40;68.30;;;;;;7383469;19;20010;-75
2023/05/03 01:45:08;;;;;;;9.52;5.68;;;17.30;68.20;;;;;;7381012;19;20245;-74
2023/05/03 01:47:37;;;;;;;15.60;5.95;;;17.40;68.30;;;;;;7409123;19;20023;-74
2023/05/03 01:50:09;;;;;;;13.75;5.57;;;17.30;68.40;;;;;;7381858;19;20003;-75
2023/05/03 01:52:38;;;;;;;12.52;5.50;;;17.30;68.40;;;;;;7380707;19;20010;-75
2023/05/03 01:55:08;;;;;;;10.70;5.47;;;17.30;68.40;;;;;;7381821;19;20055;-75
2023/05/03 01:57:39;;;;;;;13.20;5.70;;;17.20;68.10;;;;;;7381823;19;20010;-75
2023/05/03 02:00:09;;;;;;;21.58;6.63;;;17.20;68.20;;;;;;7381442;19;20002;-74
2023/05/03 02:02:38;;;;;;;10.63;5.57;;;17.20;68.20;;;;;;7400688;19;20015;-74
2023/05/03 02:05:08;;;;;;;14.55;5.97;;;17.10;68.10;;;;;;7380363;19;20066;-74
2023/05/03 02:07:36;;;;;;;17.55;6.40;;;17.10;68.20;;;;;;7380738;19;20011;-74
2023/05/03 02:10:06;;;;;;;13.02;6.30;;;17.00;68.10;;;;;;7380391;19;19998;-74
2023/05/03 02:12:34;;;;;;;11.02;5.75;;;17.00;68.50;;;;;;7383028;19;20072;-74
2023/05/03 02:15:07;;;;;;;16.83;6.88;;;17.00;68.40;;;;;;7378907;19;20007;-74
2023/05/03 02:17:36;;;;;;;12.52;5.80;;;17.00;68.30;;;;;;7400930;19;20015;-74
2023/05/03 02:20:08;;;;;;;14.55;6.35;;;17.00;68.30;;;;;;7380205;19;20017;-74
2023/05/03 02:22:37;;;;;;;15.93;5.78;;;16.90;68.60;;;;;;7380689;19;20007;-74
2023/05/03 02:25:07;;;;;;;13.27;5.70;;;16.90;68.80;;;;;;7381769;19;20312;-74
2023/05/03 02:27:35;;;;;;;16.55;6.55;;;16.90;69.20;;;;;;7380199;19;20006;-74
2023/05/03 02:30:08;;;;;;;14.95;5.95;;;16.80;69.20;;;;;;7379482;19;20007;-74
2023/05/03 02:32:37;;;;;;;11.57;6.07;;;16.80;69.00;;;;;;7401717;19;20070;-73
2023/05/03 02:35:06;;;;;;;13.93;6.40;;;16.90;69.10;;;;;;7379796;19;20006;-74
2023/05/03 02:37:35;;;;;;;15.32;6.05;;;16.80;69.70;;;;;;7379824;19;20294;-75
2023/05/03 02:40:04;;;;;;;10.60;5.68;;;16.80;70.00;;;;;;7380219;19;20054;-74
2023/05/03 02:42:33;;;;;;;16.58;5.55;;;16.70;69.90;;;;;;7380934;19;20011;-76
2023/05/03 02:45:02;;;;;;;18.90;6.43;;;16.70;71.10;;;;;;7379406;19;20011;-74
2023/05/03 02:47:33;;;;;;;17.85;6.10;;;16.50;70.40;;;;;;7399951;19;20011;-75
2023/05/03 02:50:02;;;;;;;13.40;5.85;;;16.40;71.00;;;;;;7377985;19;20058;-74
2023/05/03 02:52:31;;;;;;;15.30;6.03;;;16.40;70.90;;;;;;7380146;19;20375;-74
2023/05/03 02:54:59;;;;;;;15.45;6.50;;;16.30;71.10;;;;;;7383697;19;20006;-74
2023/05/03 02:57:28;;;;;;;11.45;5.88;;;16.20;71.50;;;;;;7383599;19;20413;-73
2023/05/03 02:59:57;;;;;;;15.13;5.88;;;16.10;71.60;;;;;;7381797;19;20062;-76
2023/05/03 03:02:26;;;;;;;14.50;5.93;;;16.00;71.90;;;;;;7401801;19;20256;-75
2023/05/03 03:04:57;;;;;;;12.43;5.47;;;16.00;72.40;;;;;;7379368;19;20082;-74
2023/05/03 03:07:26;;;;;;;10.00;5.60;;;15.90;72.70;;;;;;7381721;19;20007;-74
2023/05/03 03:09:55;;;;;;;13.25;6.10;;;16.00;72.60;;;;;;7379221;19;20003;-75
2023/05/03 03:12:24;;;;;;;12.20;6.38;;;15.90;72.70;;;;;;7379259;19;20322;-75
2023/05/03 03:14:52;;;;;;;13.65;5.72;;;15.90;72.70;;;;;;7377703;19;20010;-75
2023/05/03 03:17:21;;;;;;;14.27;6.60;;;16.00;72.80;;;;;;7401238;19;20024;-75
2023/05/03 03:19:50;;;;;;;13.35;5.85;;;16.00;72.80;;;;;;7378716;19;20058;-74
2023/05/03 03:22:21;;;;;;;12.98;5.90;;;16.00;72.80;;;;;;7378794;19;20002;-74
2023/05/03 03:24:50;;;;;;;11.68;6.63;;;16.00;72.70;;;;;;7377986;19;20028;-74
2023/05/03 03:27:20;;;;;;;11.13;6.75;;;15.90;73.60;;;;;;7379392;19;20027;-75
2023/05/03 03:29:49;;;;;;;17.92;7.38;;;15.90;72.80;;;;;;7402936;19;20006;-74
2023/05/03 03:32:17;;;;;;;18.30;6.57;;;15.90;72.70;;;;;;7386537;19;20003;-75
2023/05/03 03:34:46;;;;;;;13.13;7.00;;;15.80;72.90;;;;;;7387436;19;20077;-75
2023/05/03 03:37:15;;;;;;;14.48;6.85;;;15.70;73.10;;;;;;7387841;19;20392;-74
2023/05/03 03:39:46;;;;;;;16.65;6.90;;;15.70;73.40;;;;;;7386619;19;20027;-76
2023/05/03 03:42:16;;;;;;;13.40;6.70;;;15.70;74.30;;;;;;7386537;19;20368;-75
2023/05/03 03:44:45;;;;;;;16.10;7.53;;;15.70;73.50;;;;;;7405241;19;20282;-76
2023/05/03 03:47:14;;;;;;;15.00;7.47;;;15.60;73.50;;;;;;7385315;19;19998;-74
2023/05/03 03:49:43;;;;;;;15.32;6.97;;;15.60;73.70;;;;;;7383648;19;20015;-74
2023/05/03 03:52:11;;;;;;;15.93;8.10;;;15.60;73.80;;;;;;7386201;19;20364;-74
2023/05/03 03:54:40;;;;;;;17.90;8.02;;;15.50;73.90;;;;;;7386792;19;20052;-75
2023/05/03 03:57:11;;;;;;;20.13;7.80;;;15.50;74.80;;;;;;7383315;19;20019;-74
2023/05/03 03:59:40;;;;;;;23.45;8.32;;;15.50;74.10;;;;;;7406354;19;20067;-75
2023/05/03 04:02:09;;;;;;;13.30;7.57;;;15.50;74.00;;;;;;7384505;19;20025;-73
2023/05/03 04:04:37;;;;;;;32.83;8.50;;;15.50;74.20;;;;;;7384924;19;20066;-74
2023/05/03 04:07:06;;;;;;;19.48;8.32;;;15.50;74.40;;;;;;7384891;19;20003;-74
2023/05/03 04:09:35;;;;;;;19.17;8.45;;;15.50;74.20;;;;;;7384572;19;20010;-74
2023/05/03 04:12:04;;;;;;;23.00;8.95;;;15.40;74.30;;;;;;7382396;19;20360;-74
2023/05/03 04:14:35;;;;;;;22.15;8.38;;;15.40;74.50;;;;;;7406341;19;20003;-74
2023/05/03 04:17:04;;;;;;;19.10;8.80;;;15.40;74.60;;;;;;7383701;19;20359;-73
2023/05/03 04:19:33;;;;;;;15.13;7.72;;;15.30;74.50;;;;;;7384627;19;20021;-74
2023/05/03 04:22:02;;;;;;;20.65;8.60;;;15.30;74.70;;;;;;7384571;19;20003;-75
2023/05/03 04:24:30;;;;;;;22.20;9.77;;;15.30;74.70;;;;;;7384682;19;20380;-75
2023/05/03 04:27:00;;;;;;;24.30;8.45;;;15.40;74.90;;;;;;7381818;19;20066;-75
2023/05/03 04:29:29;;;;;;;20.58;8.20;;;15.40;74.70;;;;;;7403671;19;20036;-74
2023/05/03 04:32:02;;;;;;;19.70;9.13;;;15.40;74.80;;;;;;7383903;19;20003;-74
2023/05/03 04:34:31;;;;;;;25.30;9.43;;;15.30;75.00;;;;;;7383713;19;20007;-74
2023/05/03 04:37:00;;;;;;;20.63;9.23;;;15.40;75.10;;;;;;7384232;19;20009;-74
2023/05/03 04:39:29;;;;;;;22.90;9.50;;;15.30;75.80;;;;;;7383977;19;20352;-75
2023/05/03 04:41:57;;;;;;;18.52;8.93;;;15.30;74.80;;;;;;7386263;19;20010;-75
2023/05/03 04:44:26;;;;;;;23.75;8.95;;;15.30;75.00;;;;;;7409481;19;20011;-74
2023/05/03 04:46:55;;;;;;;26.30;10.73;;;15.40;75.10;;;;;;7386412;19;20009;-74
2023/05/03 04:49:26;;;;;;;20.90;9.00;;;15.30;74.80;;;;;;7384603;19;20400;-74
2023/05/03 04:51:55;;;;;;;21.13;9.13;;;15.30;75.00;;;;;;7383663;19;20007;-74
2023/05/03 04:54:23;;;;;;;20.23;9.88;;;15.30;75.00;;;;;;7383878;19;20024;-74
2023/05/03 04:56:52;;;;;;;25.48;9.70;;;15.30;75.20;;;;;;7384340;19;20010;-74
2023/05/03 04:59:21;;;;;;;20.33;9.43;;;15.30;75.20;;;;;;7406896;19;20009;-74
2023/05/03 05:01:50;;;;;;;21.20;9.82;;;15.40;75.30;;;;;;7383901;19;20010;-75
2023/05/03 05:04:18;;;;;;;25.73;9.40;;;15.40;75.40;;;;;;7383709;19;20006;-74
2023/05/03 05:06:52;;;;;;;22.30;9.68;;;15.40;75.40;;;;;;7381622;19;20010;-74
2023/05/03 05:09:24;;;;;;;18.52;9.00;;;15.40;75.40;;;;;;7380679;19;20002;-74
2023/05/03 05:11:54;;;;;;;19.80;8.98;;;15.50;75.10;;;;;;7385856;19;20007;-74
2023/05/03 05:14:22;;;;;;;20.38;9.40;;;15.50;75.60;;;;;;7404431;19;20019;-75
2023/05/03 05:16:51;;;;;;;17.70;9.05;;;15.60;75.10;;;;;;7381775;19;20360;-75
2023/05/03 05:19:20;;;;;;;19.65;9.57;;;15.60;75.20;;;;;;7381849;19;20006;-75
2023/05/03 05:21:52;;;;;;;20.45;9.18;;;15.70;75.10;;;;;;7382669;19;20010;-74
2023/05/03 05:24:21;;;;;;;25.88;9.30;;;15.70;75.10;;;;;;7381487;19;20003;-74
2023/05/03 05:26:50;;;;;;;22.10;9.38;;;15.80;74.90;;;;;;7404067;19;20458;-74
2023/05/03 05:29:19;;;;;;;19.80;9.35;;;15.80;74.60;;;;;;7381503;19;20079;-74
2023/05/03 05:31:48;;;;;;;18.75;9.48;;;15.90;74.30;;;;;;7381863;19;20075;-74
2023/05/03 05:34:16;;;;;;;22.42;9.05;;;15.90;74.10;;;;;;7381376;19;20070;-74
2023/05/03 05:36:45;;;;;;;21.08;9.10;;;15.90;74.00;;;;;;7380801;19;20094;-74
2023/05/03 05:39:16;;;;;;;20.42;8.95;;;15.90;74.00;;;;;;7382370;19;20805;-74
2023/05/03 05:41:45;;;;;;;15.20;8.82;;;15.90;74.10;;;;;;7403694;19;20298;-75
2023/05/03 05:44:16;;;;;;;22.23;9.40;;;16.00;74.10;;;;;;7380479;19;20013;-74
2023/05/03 05:46:45;;;;;;;18.65;8.77;;;16.00;74.90;;;;;;7382486;19;20075;-73
2023/05/03 05:49:14;;;;;;;26.58;9.05;;;16.00;73.90;;;;;;7381891;19;20007;-75
2023/05/03 05:51:43;;;;;;;23.35;9.55;;;16.00;73.90;;;;;;7380042;19;20010;-75
2023/05/03 05:54:12;;;;;;;28.25;8.98;;;16.10;73.80;;;;;;7382625;19;20022;-75
2023/05/03 05:56:43;;;;;;;23.65;9.07;;;16.10;73.80;;;;;;7405934;19;20015;-74
2023/05/03 05:59:12;;;;;;;19.80;8.75;;;16.20;73.60;;;;;;7381006;19;20016;-75
2023/05/03 06:01:44;;;;;;;21.38;8.77;;;16.20;73.30;;;;;;7380861;19;20031;-75
2023/05/03 06:04:13;;;;;;;21.50;9.15;;;16.30;73.30;;;;;;7380838;19;19999;-74
2023/05/03 06:06:42;;;;;;;16.85;8.68;;;16.20;73.00;;;;;;7381212;19;20279;-74
2023/05/03 06:09:11;;;;;;;19.60;9.20;;;16.30;73.00;;;;;;7381379;19;20007;-74
2023/05/03 06:11:42;;;;;;;19.13;9.15;;;16.30;73.10;;;;;;7402940;19;20054;-75
2023/05/03 06:14:14;;;;;;;19.50;9.23;;;16.30;73.10;;;;;;7380528;19;20009;-75
2023/05/03 06:16:42;;;;;;;22.67;9.25;;;16.30;73.00;;;;;;7380703;19;20010;-73
2023/05/03 06:19:11;;;;;;;21.15;9.07;;;16.40;72.50;;;;;;7380158;19;20360;-74
2023/05/03 06:21:40;;;;;;;26.45;9.65;;;16.40;72.50;;;;;;7381109;19;20087;-73
2023/05/03 06:24:09;;;;;;;25.05;9.10;;;16.40;72.80;;;;;;7380916;19;20007;-74
2023/05/03 06:26:37;;;;;;;58.72;12.63;;;16.40;72.40;;;;;;7402113;19;20023;-73
2023/05/03 06:29:06;;;;;;;125.68;22.67;;;16.50;72.60;;;;;;7379399;19;20066;-74
2023/05/03 06:31:37;;;;;;;123.13;20.42;;;16.40;72.60;;;;;;7379309;19;20023;-74
2023/05/03 06:34:06;;;;;;;34.03;10.73;;;16.40;72.70;;;;;;7380912;19;20058;-73
2023/05/03 06:36:34;;;;;;;44.08;12.20;;;16.50;72.60;;;;;;7381020;19;20020;-73
2023/05/03 06:39:03;;;;;;;15.50;8.77;;;16.50;72.30;;;;;;7380119;19;20029;-74
2023/05/03 06:41:33;;;;;;;24.73;9.52;;;16.50;72.10;;;;;;7400039;19;20013;-74
2023/05/03 06:44:02;;;;;;;24.48;9.48;;;16.50;72.30;;;;;;7378768;19;20007;-74
2023/05/03 06:46:31;;;;;;;24.17;9.45;;;16.50;72.20;;;;;;7379328;19;19999;-74
2023/05/03 06:49:03;;;;;;;22.00;9.32;;;16.50;72.20;;;;;;7380149;19;20003;-73
2023/05/03 06:51:32;;;;;;;17.75;9.20;;;16.50;72.20;;;;;;7380013;19;20003;-74
2023/05/03 06:54:05;;;;;;;23.88;9.40;;;16.50;72.30;;;;;;7387455;19;20014;-74
2023/05/03 06:56:34;;;;;;;24.77;8.90;;;16.60;72.60;;;;;;7402047;19;20007;-74
2023/05/03 06:59:03;;;;;;;20.58;9.20;;;16.60;72.50;;;;;;7379126;19;20006;-74
2023/05/03 07:01:32;;;;;;;25.85;9.25;;;16.60;72.40;;;;;;7378906;19;20066;-74
2023/05/03 07:04:04;;;;;;;22.00;9.00;;;16.70;72.70;;;;;;7378946;19;20006;-74
2023/05/03 07:06:33;;;;;;;21.13;9.43;;;16.70;72.80;;;;;;7381295;19;20066;-74
2023/05/03 07:09:01;;;;;;;21.10;9.07;;;16.70;72.50;;;;;;7380583;19;20254;-74
2023/05/03 07:11:30;;;;;;;25.17;8.80;;;16.80;72.10;;;;;;7398699;19;20047;-74
2023/05/03 07:13:59;;;;;;;23.45;9.35;;;16.90;71.90;;;;;;7378461;19;20006;-73
2023/05/03 07:16:28;;;;;;;22.77;10.27;;;16.90;72.20;;;;;;7378347;19;20078;-73
2023/05/03 07:18:57;;;;;;;19.38;8.63;;;16.90;72.00;;;;;;7379378;19;20003;-73
2023/05/03 07:21:29;;;;;;;22.35;8.23;;;16.90;72.00;;;;;;7379291;19;20062;-73
2023/05/03 07:23:57;;;;;;;17.60;8.40;;;16.90;71.60;;;;;;7379502;19;20035;-73
2023/05/03 07:26:27;;;;;;;22.80;8.02;;;16.90;71.40;;;;;;7400201;19;20006;-74
2023/05/03 07:28:56;;;;;;;19.92;7.80;;;17.00;71.50;;;;;;7377650;19;20003;-74
2023/05/03 07:31:25;;;;;;;19.33;8.18;;;17.10;71.40;;;;;;7376869;19;20024;-74
2023/05/03 07:33:54;;;;;;;15.40;8.07;;;17.10;71.50;;;;;;7377497;19;20067;-74
2023/05/03 07:36:22;;;;;;;27.50;8.15;;;17.20;71.60;;;;;;7378178;19;20288;-74
2023/05/03 07:38:54;;;;;;;20.17;7.60;;;17.30;71.50;;;;;;7398411;19;20006;-74
2023/05/03 07:41:23;;;;;;;14.57;7.30;;;17.30;71.40;;;;;;7378083;19;20003;-74
2023/05/03 07:43:51;;;;;;;18.95;7.90;;;17.40;71.10;;;;;;7376650;19;20266;-73
2023/05/03 07:46:20;;;;;;;16.13;6.95;;;17.50;70.60;;;;;;7378420;19;20072;-73
2023/05/03 07:48:49;;;;;;;16.08;7.68;;;17.50;70.60;;;;;;7377425;19;20066;-73
2023/05/03 07:51:18;;;;;;;13.60;7.40;;;17.60;70.90;;;;;;7377781;19;20039;-74
2023/05/03 07:53:46;;;;;;;13.75;6.82;;;17.60;70.80;;;;;;7397448;19;20027;-74
2023/05/03 07:56:17;;;;;;;31.30;8.60;;;17.70;70.60;;;;;;7377343;19;20003;-74
2023/05/03 07:58:46;;;;;;;14.63;6.72;;;17.70;70.30;;;;;;7377583;19;20020;-74
2023/05/03 08:01:15;;;;;;;18.42;6.95;;;17.70;69.90;;;;;;7378864;19;20100;-74
2023/05/03 08:03:43;;;;;;;18.88;6.85;;;17.70;69.90;;;;;;7377812;19;20002;-74
2023/05/03 08:06:12;;;;;;;19.92;7.30;;;17.70;70.20;;;;;;7377887;19;20019;-74
2023/05/03 08:08:41;;;;;;;17.05;7.05;;;17.70;70.00;;;;;;7399685;19;20087;-74
2023/05/03 08:11:10;;;;;;;14.57;6.47;;;17.60;70.20;;;;;;7375805;19;20370;-75
2023/05/03 08:13:42;;;;;;;26.25;7.28;;;17.70;70.00;;;;;;7377262;19;20003;-74
2023/05/03 08:16:10;;;;;;;21.20;6.70;;;17.70;70.50;;;;;;7382189;19;20019;-73
2023/05/03 08:18:39;;;;;;;14.07;6.55;;;17.80;70.50;;;;;;7384044;19;20039;-73
2023/05/03 08:21:10;;;;;;;17.10;6.55;;;17.80;70.30;;;;;;7384968;19;20011;-74
2023/05/03 08:23:39;;;;;;;;;;;17.80;70.20;;;;;;7403815;19;20003;-74
2023/05/03 08:26:09;;;;;;;14.70;7.10;;;17.90;70.00;;;;;;7383530;19;19927;-74
2023/05/03 08:28:41;;;;;;;11.50;6.07;;;17.90;70.00;;;;;;7383821;19;19999;-73
2023/05/03 08:31:09;;;;;;;16.25;6.93;;;17.80;69.60;;;;;;7381246;19;20003;-73
2023/05/03 08:33:38;;;;;;;10.77;6.22;;;17.90;69.90;;;;;;7384188;19;19999;-74
2023/05/03 08:36:08;;;;;;;14.07;6.75;;;18.00;70.20;;;;;;7384591;19;20078;-73
2023/05/03 08:38:40;;;;;;;19.95;6.80;;;17.90;69.60;;;;;;7405499;19;20010;-74
2023/05/03 08:41:24;;;;;;;13.45;6.38;;;17.90;69.60;;;;;;7384020;19;20007;-74
2023/05/03 08:43:57;;;;;;;18.70;6.95;;;17.90;69.30;;;;;;7382453;19;20011;-73
2023/05/03 08:46:27;;;;;;;16.55;7.35;;;17.90;69.10;;;;;;7394995;19;20010;-73
2023/05/03 08:48:56;;;;;;;13.85;6.05;;;18.00;69.30;;;;;;7387014;19;20002;-73
2023/05/03 08:51:26;;;;;;;19.58;6.50;;;18.00;69.80;;;;;;7384250;19;20016;-73
2023/05/03 08:53:56;;;;;;;20.88;6.88;;;18.10;70.00;;;;;;7407391;19;20345;-74
2023/05/03 09:00:18;;;;;;;13.32;6.40;;;18.10;69.60;;;;;;7391927;19;20302;-81
2023/05/03 09:53:41;;;;;;;14.05;6.43;;;18.40;70.20;;;;;;6356038;19;11712408;-81
2023/05/03 09:56:26;;;;;;;12.05;5.78;;;18.70;69.80;;;;;;7430673;19;20302;-80
2023/05/03 10:02:43;;;;;;;;;;;;;;;;;;;;;
2023/05/03 10:05:19;;;;;;;12.85;6.45;;;18.80;69.80;;;;;;7389714;19;20056;-81
2023/05/03 12:38:39;;;;;;;9.00;3.95;;;21.70;59.10;;;;;;7383328;19;20078;-77
2023/05/03 12:41:08;;;;;;;9.55;3.78;;;21.80;59.80;;;;;;7382302;19;20015;-76
2023/05/03 12:43:38;;;;;;;8.20;3.38;;;21.90;59.40;;;;;;7382923;19;20002;-78
2023/05/03 12:46:13;;;;;;;7.28;3.58;;;21.90;59.60;;;;;;7409075;19;20003;-82
2023/05/03 12:48:48;;;;;;;9.07;3.22;;;22.00;58.90;;;;;;7415443;19;20019;-87
2023/05/03 12:52:05;;;;;;;5.45;3.33;;;22.00;58.90;;;;;;7420290;19;20006;-80
2023/05/03 13:19:46;;;;;;;5.57;2.97;;;22.40;58.50;;;;;;7404788;19;19999;-79
2023/05/03 13:22:25;;;;;;;6.20;3.53;;;22.50;58.50;;;;;;7386355;19;20528;-80
2023/05/03 13:24:56;;;;;;;12.80;3.42;;;22.60;58.40;;;;;;7393004;19;20033;-80
2023/05/03 13:27:31;;;;;;;7.25;3.42;;;22.70;58.00;;;;;;7418537;19;20211;-81
2023/05/03 13:42:30;;;;;;;11.38;3.75;;;22.90;57.70;;;;;;7413581;19;20401;-82
2023/05/03 13:45:12;;;;;;;6.25;2.88;;;22.90;57.70;;;;;;7393580;19;20011;-82
2023/05/03 14:16:34;;;;;;;3.80;2.40;;;23.30;56.70;;;;;;7425100;19;20364;-77
2023/05/03 14:19:03;;;;;;;3.72;2.53;;;23.40;55.40;;;;;;7428986;19;20002;-78
2023/05/03 14:21:38;;;;;;;12.00;2.63;;;23.40;55.40;;;;;;7426956;19;20050;-81
2023/05/03 14:24:08;;;;;;;3.47;2.25;;;23.40;55.20;;;;;;7423906;19;20026;-74
2023/05/03 14:26:36;;;;;;;3.80;2.60;;;23.50;55.60;;;;;;7422077;19;20010;-76
2023/05/03 14:29:05;;;;;;;7.50;2.40;;;23.50;55.80;;;;;;7441204;19;20039;-72
2023/05/03 14:31:37;;;;;;;3.55;2.17;;;23.60;55.70;;;;;;7419679;19;20002;-73
2023/05/03 14:34:06;;;;;;;4.20;2.38;;;23.50;55.00;;;;;;7418944;19;20003;-73
2023/05/03 14:36:38;;;;;;;4.30;2.38;;;23.60;54.60;;;;;;7421120;19;20050;-73
2023/05/03 14:39:07;;;;;;;7.30;2.75;;;23.60;55.10;;;;;;7419461;19;20002;-73
2023/05/03 14:41:35;;;;;;;4.15;2.70;;;23.60;55.20;;;;;;7421062;19;20011;-72
2023/05/03 14:44:05;;;;;;;5.05;2.42;;;23.60;54.60;;;;;;7442480;19;20022;-72
2023/05/03 14:46:36;;;;;;;8.77;2.47;;;23.60;54.80;;;;;;7418679;19;20003;-73
2023/05/03 14:49:05;;;;;;;;;;;23.70;55.00;;;;;;7419727;19;20075;-73
2023/05/03 14:51:34;;;;;;;5.75;2.45;;;23.70;53.90;;;;;;7416928;19;19907;-73
2023/05/03 14:54:03;;;;;;;5.82;2.50;;;23.70;54.80;;;;;;7418316;19;20006;-73
2023/05/03 14:56:33;;;;;;;8.38;2.63;;;23.70;55.00;;;;;;7419983;19;20082;-72
2023/05/03 14:59:02;;;;;;;5.10;2.45;;;23.80;55.20;;;;;;7442018;19;20015;-71
2023/05/03 15:01:31;;;;;;;6.60;2.40;;;23.70;55.30;;;;;;7418161;19;20074;-72
2023/05/03 15:04:02;;;;;;;3.95;2.45;;;23.80;54.50;;;;;;7417624;19;20003;-72
2023/05/03 15:06:37;;;;;;;3.92;2.33;;;23.80;53.80;;;;;;7416926;19;20238;-71
2023/05/03 15:09:08;;;;;;;3.67;2.40;;;23.80;54.40;;;;;;7418684;19;20019;-71
2023/05/03 15:11:37;;;;;;;4.25;2.30;;;23.80;54.00;;;;;;7415446;19;20011;-71
2023/05/03 15:14:06;;;;;;;3.38;2.35;;;23.90;54.40;;;;;;7440051;19;20412;-72
2023/05/03 15:16:34;;;;;;;4.72;2.40;;;23.90;54.80;;;;;;7420354;19;20038;-71
2023/05/03 15:19:06;;;;;;;8.98;2.58;;;24.00;53.80;;;;;;7418828;19;20006;-73
2023/05/03 15:21:46;;;;;;;5.28;2.38;;;24.00;53.60;;;;;;7419624;19;20015;-71
2023/05/03 15:24:15;;;;;;;6.05;2.22;;;24.00;53.80;;;;;;7419502;19;20019;-72
2023/05/03 15:26:45;;;;;;;4.60;2.55;;;24.10;53.50;;;;;;7402637;19;20016;-73
2023/05/03 15:29:14;;;;;;;2.65;2.33;;;24.10;54.70;;;;;;7414208;19;20014;-72
2023/05/03 15:31:43;;;;;;;4.35;2.60;;;24.20;54.30;;;;;;7392604;19;20010;-73
2023/05/03 15:34:14;;;;;;;2.63;2.00;;;24.30;55.00;;;;;;7390436;19;20028;-73
2023/05/03 15:36:43;;;;;;;;;;;24.30;54.10;;;;;;7391562;19;20087;-74
2023/05/03 15:39:12;;;;;;;8.05;2.50;;;24.40;54.00;;;;;;7391275;19;19927;-74
2023/05/03 15:41:44;;;;;;;4.13;2.42;;;24.50;53.80;;;;;;7388814;19;19999;-75
2023/05/03 15:44:13;;;;;;;5.47;2.38;;;24.60;53.70;;;;;;7411234;19;20079;-74
2023/05/03 15:46:43;;;;;;;6.35;2.80;;;24.80;53.90;;;;;;7388232;19;20007;-74
2023/05/03 15:49:14;;;;;;;9.85;2.58;;;24.80;53.60;;;;;;7384161;19;20003;-75
2023/05/03 15:51:43;;;;;;;4.55;2.78;;;24.80;53.10;;;;;;7382957;19;20011;-73
2023/05/03 15:54:11;;;;;;;6.38;3.00;;;25.10;52.80;;;;;;7381790;19;20279;-73
2023/05/03 15:56:40;;;;;;;4.32;2.85;;;25.50;52.30;;;;;;7381864;19;20075;-73
2023/05/03 15:59:13;;;;;;;4.82;2.60;;;26.20;51.30;;;;;;7404992;19;20016;-74
2023/05/03 16:01:42;;;;;;;6.45;2.45;;;27.00;51.10;;;;;;7383160;19;20250;-73
2023/05/03 16:04:13;;;;;;;9.65;2.53;;;27.90;50.30;;;;;;7382734;19;20003;-73
2023/05/03 16:06:42;;;;;;;6.32;2.58;;;28.80;49.00;;;;;;7383522;19;20006;-73
2023/05/03 16:09:11;;;;;;;7.47;3.05;;;29.70;48.20;;;;;;7383754;19;20030;-73
2023/05/03 16:11:40;;;;;;;3.42;2.22;;;30.60;47.10;;;;;;7383962;19;20068;-72
2023/05/03 16:14:11;;;;;;;3.85;2.60;;;31.40;46.50;;;;;;7403904;19;20028;-77
2023/05/03 16:16:40;;;;;;;3.50;2.58;;;32.20;45.30;;;;;;7381701;19;20013;-74
2023/05/03 16:19:10;;;;;;;7.35;2.40;;;33.00;44.60;;;;;;7382437;19;20419;-73
2023/05/03 16:21:42;;;;;;;6.93;2.70;;;33.50;44.50;;;;;;7383987;19;20002;-76
2023/05/03 16:24:11;;;;;;;10.77;3.10;;;33.80;42.90;;;;;;7386596;19;20010;-79
2023/05/03 16:26:39;;;;;;;3.28;2.40;;;34.00;42.10;;;;;;7381216;19;20024;-75
2023/05/03 16:29:08;;;;;;;5.60;2.20;;;34.30;41.50;;;;;;7405025;19;20026;-76
2023/05/03 16:31:37;;;;;;;3.10;2.28;;;34.80;41.20;;;;;;7383121;19;20003;-75
2023/05/03 16:34:06;;;;;;;3.03;2.20;;;35.30;40.70;;;;;;7384403;19;20010;-75
2023/05/03 16:36:41;;;;;;;3.15;2.13;;;35.60;40.30;;;;;;7382937;19;20104;-75
2023/05/03 16:39:12;;;;;;;2.47;2.10;;;36.00;39.30;;;;;;7381263;19;20023;-76
2023/05/03 16:41:41;;;;;;;5.20;2.25;;;36.20;39.00;;;;;;7383136;19;20000;-75
2023/05/03 16:44:10;;;;;;;7.18;2.42;;;36.50;38.70;;;;;;7403071;19;20090;-74
